KFHU/FHU METAR and TAF weather

Enter ICAO airport designator
Station Type Date Time Source
KFHU METAR 2019/06/16 04:58 UTC NOAA

KFHU 160458Z AUTO 25009KT 10SM CLR 26/M05 A3006 RMK AO2 SLP098 T02591046


Station Type Date Time Source
KFHU Decoded METAR 2019/06/16 04:58 UTC NOAA

Fort Huachuca, Libby AAF Ft Huachuca, AZ, United States (KFHU) 46-98N 110-20W
Jun 16, 2019 - 12:58 AM EDT / 2019.06.16 0458 UTC
Wind: from the WSW (250 degrees) at 10 MPH (9 KT):0
Visibility: 10 mile(s):0
Sky conditions: clear
Temperature: 78.6 F (25.9 C)
Dew Point: 23.7 F (-4.6 C)
Relative Humidity: 13%
Pressure (altimeter): 30.06 in. Hg (1017 hPa)
ob: KFHU 160458Z AUTO 25009KT 10SM CLR 26/M05 A3006 RMK AO2 SLP098 T02591046
cycle: 5

Station Type Date Time Source
KFHU TAF 2019/06/15 10:07 UTC NOAA

TAF KFHU 151000Z 1510/1616 21009KT 9999 SKC QNH3003INS
BECMG 1518/1519 24012G18KT 9999 SKC QNH2998INS
BECMG 1602/1603 24009KT 9999 SKC QNH3001INS
BECMG 1611/1612 18009KT 9999 SKC QNH3004INS TX32/1521Z TN14/1512Z LAST NO
AMDS AFT 1514 NEXT 1618

Example: see airport list